createdAt,value
2023-05-24T00:00:43.292Z,1.59
2023-05-24T00:01:43.104Z,1.61
2023-05-24T00:02:43.367Z,1.60
2023-05-24T00:03:43.328Z,1.58
2023-05-24T00:04:43.320Z,1.56
2023-05-24T00:05:43.397Z,1.57
2023-05-24T00:06:43.425Z,1.56
2023-05-24T00:07:43.471Z,1.52
2023-05-24T00:08:43.560Z,1.50
2023-05-24T00:09:43.590Z,1.49
2023-05-24T00:10:43.902Z,1.53
2023-05-24T00:11:43.668Z,1.52
2023-05-24T00:12:43.720Z,1.51
2023-05-24T00:13:43.771Z,1.48
2023-05-24T00:14:43.837Z,1.46
2023-05-24T00:15:43.885Z,1.46
2023-05-24T00:16:43.991Z,1.48
2023-05-24T00:17:44.057Z,1.47
2023-05-24T00:18:44.048Z,1.50
2023-05-24T00:19:44.079Z,1.47
2023-05-24T00:20:44.381Z,1.45
2023-05-24T00:21:44.183Z,1.45
2023-05-24T00:22:44.247Z,1.44
2023-05-24T00:23:44.297Z,1.48
2023-05-24T00:24:44.354Z,1.47
2023-05-24T00:25:44.395Z,1.44
2023-05-24T00:26:44.467Z,1.46
2023-05-24T00:27:44.488Z,1.47
2023-05-24T00:28:44.511Z,1.46
2023-05-24T00:29:44.541Z,1.46
2023-05-24T00:30:44.762Z,1.45
2023-05-24T00:31:44.630Z,1.45
2023-05-24T00:32:44.725Z,1.48
2023-05-24T00:33:44.693Z,1.47
2023-05-24T00:34:44.716Z,1.47
2023-05-24T00:35:44.762Z,1.51
2023-05-24T00:36:44.814Z,1.46
2023-05-24T00:37:44.870Z,1.49
2023-05-24T00:38:44.907Z,1.48
2023-05-24T00:39:44.935Z,1.45
2023-05-24T00:40:44.982Z,1.46
2023-05-24T00:41:44.974Z,1.46
2023-05-24T00:42:45.023Z,1.47
2023-05-24T00:43:45.047Z,1.46
2023-05-24T00:44:45.085Z,1.46
2023-05-24T00:45:45.149Z,1.46
2023-05-24T00:46:45.141Z,1.47
2023-05-24T00:47:45.221Z,1.47
2023-05-24T00:48:45.188Z,1.45
2023-05-24T00:49:45.216Z,1.47
2023-05-24T00:50:45.223Z,1.47
2023-05-24T00:51:45.197Z,1.48
2023-05-24T00:52:45.195Z,1.48
2023-05-24T00:53:45.157Z,1.49
2023-05-24T00:54:45.144Z,1.49
2023-05-24T00:55:45.135Z,1.48
2023-05-24T00:56:45.118Z,1.52
2023-05-24T00:57:45.100Z,1.48
2023-05-24T00:58:45.103Z,1.50
2023-05-24T00:59:45.099Z,1.49
2023-05-24T01:00:45.075Z,1.48
2023-05-24T01:01:45.087Z,1.49
2023-05-24T01:02:45.180Z,1.49
2023-05-24T01:03:45.195Z,1.49
2023-05-24T01:04:45.027Z,1.49
2023-05-24T01:05:45.007Z,1.50
2023-05-24T01:06:45.055Z,1.51
2023-05-24T01:07:44.978Z,1.52
2023-05-24T01:08:44.991Z,1.53
2023-05-24T01:09:44.958Z,1.52
2023-05-24T01:10:44.996Z,1.53
2023-05-24T01:11:44.957Z,1.55
2023-05-24T01:12:44.965Z,1.54
2023-05-24T01:13:44.955Z,1.53
2023-05-24T01:14:45.004Z,1.51
2023-05-24T01:15:45.070Z,1.53
2023-05-24T01:16:45.061Z,1.54
2023-05-24T01:17:45.108Z,1.51
2023-05-24T01:18:45.099Z,1.57
2023-05-24T01:19:45.114Z,1.54
2023-05-24T01:20:45.447Z,1.55
2023-05-24T01:21:45.148Z,1.57
2023-05-24T01:22:45.199Z,1.53
2023-05-24T01:23:45.231Z,1.58
2023-05-24T01:24:45.284Z,1.53
2023-05-24T01:25:45.311Z,1.57
2023-05-24T01:26:45.332Z,1.56
2023-05-24T01:27:45.390Z,1.54
2023-05-24T01:28:45.405Z,1.54
2023-05-24T01:29:45.399Z,1.55
2023-05-24T01:30:45.455Z,1.55
2023-05-24T01:31:45.573Z,1.54
2023-05-24T01:32:45.548Z,1.57
2023-05-24T01:33:45.503Z,1.58
2023-05-24T01:34:45.570Z,1.56
2023-05-24T01:35:45.654Z,1.55
2023-05-24T01:36:45.645Z,1.52
2023-05-24T01:37:45.698Z,1.53
2023-05-24T01:38:45.720Z,1.51
2023-05-24T01:39:45.745Z,1.52
2023-05-24T01:40:45.832Z,1.54
2023-05-24T01:41:45.852Z,1.55
2023-05-24T01:42:45.863Z,1.52
2023-05-24T01:43:45.904Z,1.50
2023-05-24T01:44:45.939Z,1.52
2023-05-24T01:45:46.000Z,1.54
2023-05-24T01:46:46.077Z,1.54
2023-05-24T01:47:46.077Z,1.53
2023-05-24T01:48:46.077Z,1.51
2023-05-24T01:49:46.104Z,1.52
2023-05-24T01:50:46.144Z,1.54
2023-05-24T01:51:46.175Z,1.56
2023-05-24T01:52:46.139Z,1.52
2023-05-24T01:53:46.340Z,1.51
2023-05-24T01:54:46.232Z,1.52
2023-05-24T01:55:46.255Z,1.52
2023-05-24T01:56:46.250Z,1.54
2023-05-24T01:57:46.300Z,1.55
2023-05-24T01:58:46.292Z,1.52
2023-05-24T01:59:46.326Z,1.50
2023-05-24T02:00:46.407Z,1.52
2023-05-24T02:01:46.330Z,1.52
2023-05-24T02:02:46.439Z,1.49
2023-05-24T02:03:46.319Z,1.53
2023-05-24T02:04:46.346Z,1.51
2023-05-24T02:05:46.334Z,1.53
2023-05-24T02:06:46.331Z,1.50
2023-05-24T02:07:46.337Z,1.51
2023-05-24T02:08:46.366Z,1.53
2023-05-24T02:09:46.372Z,1.56
2023-05-24T02:10:46.366Z,1.55
2023-05-24T02:11:46.342Z,1.53
2023-05-24T02:12:46.342Z,1.52
2023-05-24T02:13:46.363Z,1.50
2023-05-24T02:14:46.370Z,1.50
2023-05-24T02:15:46.378Z,1.52
2023-05-24T02:16:46.408Z,1.56
2023-05-24T02:17:46.449Z,1.53
2023-05-24T02:18:46.430Z,1.52
2023-05-24T02:19:46.449Z,1.54
2023-05-24T02:20:46.567Z,1.53
2023-05-24T02:21:46.485Z,1.54
2023-05-24T02:22:46.468Z,1.54
2023-05-24T02:23:46.465Z,1.54
2023-05-24T02:24:46.424Z,1.53
2023-05-24T02:25:46.456Z,1.51
2023-05-24T02:26:46.404Z,1.52
2023-05-24T02:27:46.394Z,1.53
2023-05-24T02:28:46.386Z,1.52
2023-05-24T02:29:46.355Z,1.48
2023-05-24T02:30:46.374Z,1.49
2023-05-24T02:31:46.332Z,1.52
2023-05-24T02:32:46.375Z,1.52
2023-05-24T02:33:46.302Z,1.54
2023-05-24T02:34:46.281Z,1.51
2023-05-24T02:35:46.277Z,1.54
2023-05-24T02:36:46.281Z,1.51
2023-05-24T02:37:46.254Z,1.52
2023-05-24T02:38:46.275Z,1.56
2023-05-24T02:39:46.233Z,1.51
2023-05-24T02:40:46.207Z,1.51
2023-05-24T02:41:46.200Z,1.52
2023-05-24T02:42:46.199Z,1.52
2023-05-24T02:43:46.183Z,1.52
2023-05-24T02:44:46.175Z,1.50
2023-05-24T02:45:46.153Z,1.54
2023-05-24T02:46:46.210Z,1.55
2023-05-24T02:47:46.171Z,1.52
2023-05-24T02:48:46.110Z,1.52
2023-05-24T02:49:46.101Z,1.50
2023-05-24T02:50:46.094Z,1.49
2023-05-24T02:51:46.074Z,1.52
2023-05-24T02:52:46.110Z,1.52
2023-05-24T02:53:46.139Z,1.51
2023-05-24T02:54:46.144Z,1.52
2023-05-24T02:55:46.143Z,1.53
2023-05-24T02:56:46.145Z,1.52
2023-05-24T02:57:46.134Z,1.53
2023-05-24T02:58:46.131Z,1.53
2023-05-24T02:59:46.100Z,1.53
2023-05-24T03:00:46.099Z,1.54
2023-05-24T03:01:46.118Z,1.52
2023-05-24T03:02:46.136Z,1.56
2023-05-24T03:03:46.208Z,1.50
2023-05-24T03:04:46.037Z,1.55
2023-05-24T03:05:46.048Z,1.53
2023-05-24T03:06:46.023Z,1.51
2023-05-24T03:07:46.017Z,1.51
2023-05-24T03:08:46.024Z,1.53
2023-05-24T03:09:46.014Z,1.52
2023-05-24T03:10:45.986Z,1.50
2023-05-24T03:11:45.973Z,1.48
2023-05-24T03:12:45.979Z,1.53
2023-05-24T03:13:45.956Z,1.53
2023-05-24T03:14:45.938Z,1.50
2023-05-24T03:15:45.945Z,1.51
2023-05-24T03:16:46.009Z,1.53
2023-05-24T03:17:45.960Z,1.53
2023-05-24T03:18:45.917Z,1.50
2023-05-24T03:19:45.897Z,1.51
2023-05-24T03:20:45.951Z,1.53
2023-05-24T03:21:45.890Z,1.51
2023-05-24T03:22:45.866Z,1.52
2023-05-24T03:23:45.875Z,1.52
2023-05-24T03:24:45.841Z,1.48
2023-05-24T03:25:45.841Z,1.53
2023-05-24T03:26:45.828Z,1.49
2023-05-24T03:27:45.845Z,1.53
2023-05-24T03:28:45.828Z,1.51
2023-05-24T03:29:45.834Z,1.51
2023-05-24T03:30:45.809Z,1.51
2023-05-24T03:31:45.834Z,1.51
2023-05-24T03:32:45.873Z,1.50
2023-05-24T03:33:45.805Z,1.52
2023-05-24T03:34:45.786Z,1.49
2023-05-24T03:35:45.776Z,1.54
2023-05-24T03:36:45.783Z,1.49
2023-05-24T03:37:45.770Z,1.52
2023-05-24T03:38:45.801Z,1.51
2023-05-24T03:39:45.758Z,1.52
2023-05-24T03:40:45.758Z,1.54
2023-05-24T03:41:45.760Z,1.51
2023-05-24T03:42:45.738Z,1.49
2023-05-24T03:43:45.727Z,1.49
2023-05-24T03:44:45.717Z,1.51
2023-05-24T03:45:45.793Z,1.51
2023-05-24T03:46:45.693Z,1.49
2023-05-24T03:47:45.763Z,1.50
2023-05-24T03:48:45.690Z,1.47
2023-05-24T03:49:45.699Z,1.51
2023-05-24T03:50:45.752Z,1.47
2023-05-24T03:51:45.687Z,1.46
2023-05-24T03:52:45.696Z,1.47
2023-05-24T03:53:45.679Z,1.48
2023-05-24T03:54:45.672Z,1.45
2023-05-24T03:55:45.669Z,1.50
2023-05-24T03:56:45.668Z,1.48
2023-05-24T03:57:45.677Z,1.44
2023-05-24T03:58:45.647Z,1.42
2023-05-24T03:59:45.650Z,1.44
2023-05-24T04:00:45.616Z,1.44
2023-05-24T04:01:45.635Z,1.43
2023-05-24T04:02:45.676Z,1.43
2023-05-24T04:03:45.860Z,1.41
2023-05-24T04:04:45.588Z,1.45
2023-05-24T04:05:45.585Z,1.41
2023-05-24T04:06:45.585Z,1.40
2023-05-24T04:07:45.589Z,1.40
2023-05-24T04:08:45.566Z,1.43
2023-05-24T04:09:45.562Z,1.40
2023-05-24T04:10:45.630Z,1.42
2023-05-24T04:11:45.546Z,1.41
2023-05-24T04:12:45.544Z,1.39
2023-05-24T04:13:45.549Z,1.42
2023-05-24T04:14:45.504Z,1.38
2023-05-24T04:15:45.498Z,1.39
2023-05-24T04:16:45.542Z,1.37
2023-05-24T04:17:45.632Z,1.37
2023-05-24T04:18:45.615Z,1.38
2023-05-24T04:19:45.467Z,1.37
2023-05-24T04:20:45.585Z,1.33
2023-05-24T04:21:45.470Z,1.34
2023-05-24T04:22:45.443Z,1.35
2023-05-24T04:23:45.472Z,1.33
2023-05-24T04:24:45.467Z,1.33
2023-05-24T04:25:45.449Z,1.34
2023-05-24T04:26:45.444Z,1.32
2023-05-24T04:27:45.457Z,1.32
2023-05-24T04:28:45.456Z,1.35
2023-05-24T04:29:45.536Z,1.32
2023-05-24T04:30:45.480Z,1.31
2023-05-24T04:31:45.576Z,1.32
2023-05-24T04:32:45.478Z,1.33
2023-05-24T04:33:45.449Z,1.30
2023-05-24T04:34:45.464Z,1.33
2023-05-24T04:35:45.461Z,1.30
2023-05-24T04:36:45.456Z,1.30
2023-05-24T04:37:45.437Z,1.31
2023-05-24T04:38:45.412Z,1.30
2023-05-24T04:39:45.403Z,1.30
2023-05-24T04:40:45.490Z,1.30
2023-05-24T04:41:45.414Z,1.31
2023-05-24T04:42:45.378Z,1.32
2023-05-24T04:43:45.368Z,1.31
2023-05-24T04:44:45.384Z,1.34
2023-05-24T04:45:45.372Z,1.33
2023-05-24T04:46:45.368Z,1.30
2023-05-24T04:47:45.447Z,1.29
2023-05-24T04:48:45.346Z,1.31
2023-05-24T04:49:45.335Z,1.29
2023-05-24T04:50:45.327Z,1.31
2023-05-24T04:51:45.324Z,1.29
2023-05-24T04:52:45.301Z,1.30
2023-05-24T04:53:45.289Z,1.28
2023-05-24T04:54:45.275Z,1.27
2023-05-24T04:55:45.284Z,1.25
2023-05-24T04:56:45.269Z,1.30
2023-05-24T04:57:45.258Z,1.29
2023-05-24T04:58:45.255Z,1.27
2023-05-24T04:59:45.254Z,1.24
2023-05-24T05:00:45.228Z,1.24
2023-05-24T05:01:45.362Z,1.26
2023-05-24T05:02:45.316Z,1.25
2023-05-24T05:03:45.255Z,1.25
2023-05-24T05:04:45.182Z,1.23
2023-05-24T05:05:45.179Z,1.25
2023-05-24T05:06:45.183Z,1.22
2023-05-24T05:07:45.147Z,1.24
2023-05-24T05:08:45.170Z,1.25
2023-05-24T05:09:45.133Z,1.22
2023-05-24T05:10:45.146Z,1.24
2023-05-24T05:11:45.121Z,1.21
2023-05-24T05:12:45.101Z,1.22
2023-05-24T05:13:45.113Z,1.22
2023-05-24T05:14:45.094Z,1.21
2023-05-24T05:15:45.086Z,1.22
2023-05-24T05:16:45.163Z,1.19
2023-05-24T05:17:45.102Z,1.20
2023-05-24T05:18:45.068Z,1.20
2023-05-24T05:19:45.069Z,1.20
2023-05-24T05:20:45.523Z,1.19
2023-05-24T05:21:45.070Z,1.20
2023-05-24T05:22:45.030Z,1.21
2023-05-24T05:23:45.030Z,1.23
2023-05-24T05:24:45.036Z,1.21
2023-05-24T05:25:45.043Z,1.21
2023-05-24T05:26:45.038Z,1.20
2023-05-24T05:27:45.191Z,1.22
2023-05-24T05:28:45.046Z,1.25
2023-05-24T05:29:45.030Z,1.25
2023-05-24T05:30:45.042Z,1.23
2023-05-24T05:31:45.023Z,1.24
2023-05-24T05:32:45.088Z,1.26
2023-05-24T05:33:44.990Z,1.27
2023-05-24T05:34:44.972Z,1.30
2023-05-24T05:35:44.969Z,1.33
2023-05-24T05:36:44.937Z,1.43
2023-05-24T05:37:44.932Z,1.48
2023-05-24T05:38:44.928Z,1.56
2023-05-24T05:39:44.967Z,1.62
2023-05-24T05:40:44.910Z,1.73
2023-05-24T05:41:45.939Z,1.90
2023-05-24T05:42:44.890Z,2.06
2023-05-24T05:43:44.870Z,2.20
2023-05-24T05:44:44.870Z,2.40
2023-05-24T05:45:44.897Z,2.62
2023-05-24T05:46:44.868Z,2.82
2023-05-24T05:47:44.889Z,3.05
2023-05-24T05:48:46.410Z,3.23
2023-05-24T05:49:44.811Z,3.65
2023-05-24T05:50:44.814Z,4.00
2023-05-24T05:51:44.857Z,4.37
2023-05-24T05:52:44.918Z,4.61
2023-05-24T05:53:45.026Z,4.73
2023-05-24T05:54:45.080Z,4.88
2023-05-24T05:55:45.084Z,5.43
2023-05-24T05:56:45.072Z,5.44
2023-05-24T05:57:45.036Z,5.46
2023-05-24T05:58:45.052Z,5.53
2023-05-24T05:59:45.046Z,5.76
2023-05-24T06:00:45.038Z,6.15
2023-05-24T06:01:44.997Z,6.56
2023-05-24T06:02:45.071Z,6.62
2023-05-24T06:03:45.324Z,6.93
2023-05-24T06:04:45.022Z,7.16
2023-05-24T06:05:44.959Z,7.46
2023-05-24T06:06:45.035Z,7.56
2023-05-24T06:07:44.999Z,7.63
2023-05-24T06:08:45.055Z,7.96
2023-05-24T06:09:45.098Z,7.90
2023-05-24T06:10:45.218Z,8.11
2023-05-24T06:11:45.222Z,7.96
2023-05-24T06:12:45.158Z,7.97
2023-05-24T06:13:45.162Z,8.00
2023-05-24T06:14:45.197Z,8.03
2023-05-24T06:15:45.170Z,8.18
2023-05-24T06:16:45.345Z,7.97
2023-05-24T06:17:45.231Z,7.41
2023-05-24T06:18:57.047Z,6.15
2023-05-24T06:19:46.090Z,4.64
2023-05-24T06:20:45.589Z,3.68
2023-05-24T06:21:45.093Z,2.56
2023-05-24T06:22:45.241Z,2.36
2023-05-24T06:23:45.071Z,2.42
2023-05-24T06:24:45.447Z,2.34
2023-05-24T06:25:45.724Z,2.28
2023-05-24T06:26:45.156Z,2.16
2023-05-24T06:27:45.431Z,2.31
2023-05-24T06:28:45.253Z,2.32
2023-05-24T06:29:45.270Z,2.33
2023-05-24T06:30:45.529Z,2.37
2023-05-24T06:31:45.229Z,2.43
2023-05-24T06:32:45.249Z,2.60
2023-05-24T06:33:52.422Z,2.71
2023-05-24T06:34:46.219Z,2.71
2023-05-24T06:35:45.221Z,2.73
2023-05-24T06:36:45.197Z,2.81
2023-05-24T06:37:45.186Z,2.87
2023-05-24T06:38:45.172Z,2.89
2023-05-24T06:39:45.159Z,2.90
2023-05-24T06:40:45.132Z,2.91
2023-05-24T06:41:45.144Z,2.92
2023-05-24T06:42:45.105Z,2.99
2023-05-24T06:43:45.156Z,3.07
2023-05-24T06:44:45.079Z,3.48
2023-05-24T06:45:45.076Z,3.89
2023-05-24T06:46:45.057Z,3.90
2023-05-24T06:47:45.114Z,3.98
2023-05-24T06:48:45.278Z,4.14
2023-05-24T06:49:45.051Z,4.44
2023-05-24T06:50:45.127Z,4.85
2023-05-24T06:51:44.985Z,4.96
2023-05-24T06:52:44.958Z,5.12
2023-05-24T06:53:44.971Z,5.27
2023-05-24T06:54:44.967Z,5.32
2023-05-24T06:55:44.973Z,5.52
2023-05-24T06:56:44.927Z,5.65
2023-05-24T06:57:44.907Z,5.82
2023-05-24T06:58:44.880Z,5.91
2023-05-24T06:59:44.880Z,6.18
2023-05-24T07:00:45.172Z,6.46
2023-05-24T07:01:45.191Z,6.56
2023-05-24T07:02:44.961Z,6.83
2023-05-24T07:03:44.928Z,6.86
2023-05-24T07:04:44.947Z,7.02
2023-05-24T07:05:44.916Z,7.24
2023-05-24T07:06:44.979Z,7.48
2023-05-24T07:07:44.951Z,7.71
2023-05-24T07:08:44.942Z,7.86
2023-05-24T07:09:45.028Z,8.08
2023-05-24T07:10:45.118Z,8.17
2023-05-24T07:11:45.031Z,8.32
2023-05-24T07:12:44.927Z,8.33
2023-05-24T07:13:44.907Z,8.38
2023-05-24T07:14:44.953Z,8.49
2023-05-24T07:15:44.877Z,8.75
2023-05-24T07:16:44.898Z,9.17
2023-05-24T07:17:44.895Z,8.36
2023-05-24T07:18:44.968Z,8.51
2023-05-24T07:19:44.794Z,8.82
2023-05-24T07:20:45.091Z,9.32
2023-05-24T07:21:44.780Z,10.22
2023-05-24T07:22:44.750Z,8.39
2023-05-24T07:23:44.709Z,8.40
2023-05-24T07:24:44.704Z,8.70
2023-05-24T07:25:44.695Z,9.23
2023-05-24T07:26:44.703Z,8.42
2023-05-24T07:27:44.659Z,8.78
2023-05-24T07:28:44.727Z,9.36
2023-05-24T07:29:45.784Z,10.35
2023-05-24T07:30:44.613Z,11.85
2023-05-24T07:31:44.663Z,12.11
2023-05-24T07:32:44.693Z,12.21
2023-05-24T07:33:44.524Z,12.24
2023-05-24T07:34:44.515Z,12.33
2023-05-24T07:35:44.493Z,12.34
2023-05-24T07:36:44.556Z,12.53
2023-05-24T07:37:44.641Z,12.67
2023-05-24T07:38:44.463Z,12.84
2023-05-24T07:39:44.453Z,12.58
2023-05-24T07:40:44.555Z,12.60
2023-05-24T07:41:44.404Z,12.68
2023-05-24T07:42:44.401Z,12.89
2023-05-24T07:43:44.372Z,13.35
2023-05-24T07:44:44.342Z,13.80
2023-05-24T07:45:44.476Z,13.90
2023-05-24T07:46:44.344Z,14.21
2023-05-24T07:47:44.363Z,14.61
2023-05-24T07:48:44.312Z,14.64
2023-05-24T07:49:44.274Z,14.67
2023-05-24T07:50:44.490Z,14.73
2023-05-24T07:51:44.309Z,14.92
2023-05-24T07:52:44.219Z,15.07
2023-05-24T07:53:44.238Z,15.53
2023-05-24T07:54:44.218Z,14.98
2023-05-24T07:55:44.363Z,14.78
2023-05-24T07:56:44.179Z,14.54
2023-05-24T07:57:44.155Z,14.45
2023-05-24T07:58:44.135Z,14.16
2023-05-24T07:59:44.125Z,13.71
2023-05-24T08:00:44.149Z,13.59
2023-05-24T08:01:44.126Z,13.48
2023-05-24T08:02:44.361Z,13.10
2023-05-24T08:03:44.292Z,12.97
2023-05-24T08:04:44.105Z,13.19
2023-05-24T08:05:44.379Z,13.03
2023-05-24T08:06:44.141Z,13.00
2023-05-24T08:07:44.128Z,13.05
2023-05-24T08:08:44.070Z,12.74
2023-05-24T08:09:44.086Z,12.35
2023-05-24T08:10:44.075Z,12.31
2023-05-24T08:11:44.067Z,12.13
2023-05-24T08:12:44.043Z,12.14
2023-05-24T08:13:44.026Z,12.10
2023-05-24T08:14:44.010Z,11.80
2023-05-24T08:15:44.187Z,11.66
2023-05-24T08:16:44.101Z,11.35
2023-05-24T08:17:43.989Z,11.37
2023-05-24T08:18:43.988Z,11.08
2023-05-24T08:19:43.936Z,11.14
2023-05-24T08:20:44.005Z,10.87
2023-05-24T08:21:43.900Z,10.53
2023-05-24T08:22:43.984Z,10.51
2023-05-24T08:23:43.870Z,10.42
2023-05-24T08:24:43.856Z,10.15
2023-05-24T08:25:44.055Z,10.14
2023-05-24T08:26:44.782Z,9.94
2023-05-24T08:27:43.830Z,9.48
2023-05-24T08:28:43.833Z,9.58
2023-05-24T08:29:43.799Z,9.50
2023-05-24T08:30:43.811Z,9.34
2023-05-24T08:31:43.870Z,8.88
2023-05-24T08:32:43.760Z,8.89
2023-05-24T08:33:43.712Z,8.92
2023-05-24T08:34:43.706Z,8.66
2023-05-24T08:35:43.955Z,8.68
2023-05-24T08:36:43.754Z,8.64
2023-05-24T08:37:43.759Z,8.39
2023-05-24T08:38:43.746Z,7.92
2023-05-24T08:39:43.754Z,6.65
2023-05-24T08:40:43.789Z,5.12
2023-05-24T08:41:45.790Z,3.68
2023-05-24T08:42:44.780Z,3.15
2023-05-24T08:43:43.769Z,2.47
2023-05-24T08:44:43.731Z,2.37
2023-05-24T08:45:44.006Z,2.45
2023-05-24T08:46:43.769Z,2.93
2023-05-24T08:47:43.775Z,3.12
2023-05-24T08:48:43.767Z,3.10
2023-05-24T08:49:43.684Z,3.28
2023-05-24T08:50:43.753Z,3.26
2023-05-24T08:51:43.646Z,3.25
2023-05-24T08:52:43.637Z,3.26
2023-05-24T08:53:43.608Z,3.27
2023-05-24T08:54:43.618Z,3.23
2023-05-24T08:55:43.924Z,3.14
2023-05-24T08:56:43.593Z,3.15
2023-05-24T08:57:43.548Z,3.17
2023-05-24T08:58:43.539Z,3.23
2023-05-24T08:59:43.519Z,3.24
2023-05-24T09:00:43.526Z,3.23
2023-05-24T09:01:43.542Z,3.30
2023-05-24T09:02:43.518Z,3.43
2023-05-24T09:03:43.506Z,3.36
2023-05-24T09:04:43.436Z,3.44
2023-05-24T09:05:43.705Z,3.38
2023-05-24T09:06:43.430Z,3.41
2023-05-24T09:07:43.412Z,3.37
2023-05-24T09:08:44.156Z,3.35
2023-05-24T09:09:43.375Z,3.31
2023-05-24T09:10:53.946Z,3.26
2023-05-24T09:11:44.337Z,3.27
2023-05-24T09:12:43.385Z,3.27
2023-05-24T09:13:43.307Z,3.28
2023-05-24T09:14:43.295Z,3.29
2023-05-24T09:15:43.410Z,3.28
2023-05-24T09:16:43.322Z,3.28
2023-05-24T09:17:43.246Z,3.27
2023-05-24T09:18:43.265Z,3.28
2023-05-24T09:19:43.176Z,3.25
2023-05-24T09:20:43.287Z,3.26
2023-05-24T09:21:44.813Z,3.22
2023-05-24T09:22:43.151Z,3.23
2023-05-24T09:23:43.107Z,3.21
2023-05-24T09:24:43.100Z,3.19
2023-05-24T09:25:43.078Z,3.18
2023-05-24T09:26:43.061Z,3.16
2023-05-24T09:27:43.034Z,3.18
2023-05-24T09:28:43.029Z,3.16
2023-05-24T09:29:42.991Z,3.16
2023-05-24T09:30:43.144Z,3.15
2023-05-24T09:31:43.039Z,3.15
2023-05-24T09:32:43.008Z,3.12
2023-05-24T09:33:42.903Z,3.12
2023-05-24T09:34:42.908Z,3.08
2023-05-24T09:35:42.914Z,3.08
2023-05-24T09:36:42.977Z,3.05
2023-05-24T09:37:42.961Z,3.05
2023-05-24T09:38:42.978Z,3.06
2023-05-24T09:39:42.971Z,3.04
2023-05-24T09:40:43.069Z,3.03
2023-05-24T09:41:43.006Z,3.20
2023-05-24T09:42:43.136Z,3.52
2023-05-24T09:43:43.030Z,3.55
2023-05-24T09:44:43.096Z,3.83
2023-05-24T09:45:43.057Z,4.07
2023-05-24T09:46:43.169Z,4.61
2023-05-24T09:47:43.211Z,5.26
2023-05-24T09:48:43.105Z,5.86
2023-05-24T09:49:43.097Z,6.40
2023-05-24T09:50:43.415Z,7.04
2023-05-24T09:51:43.302Z,7.42
2023-05-24T09:52:43.167Z,7.98
2023-05-24T09:53:43.137Z,8.17
2023-05-24T09:54:43.102Z,8.37
2023-05-24T09:55:43.113Z,8.79
2023-05-24T09:56:43.106Z,8.81
2023-05-24T09:57:43.077Z,8.93
2023-05-24T09:58:43.071Z,9.27
2023-05-24T09:59:43.018Z,10.19
2023-05-24T10:00:43.618Z,11.58
2023-05-24T10:01:43.067Z,12.20
2023-05-24T10:02:52.232Z,12.63
2023-05-24T10:03:44.056Z,12.67
2023-05-24T10:04:42.946Z,12.90
2023-05-24T10:05:42.908Z,13.48
2023-05-24T10:06:42.864Z,14.54
2023-05-24T10:07:42.816Z,16.64
2023-05-24T10:08:42.790Z,17.96
2023-05-24T10:09:42.765Z,19.03
2023-05-24T10:10:43.008Z,19.29
2023-05-24T10:11:42.757Z,19.65
2023-05-24T10:12:42.783Z,19.94
2023-05-24T10:13:42.798Z,20.53
2023-05-24T10:14:42.942Z,20.48
2023-05-24T10:15:42.838Z,20.57
2023-05-24T10:16:42.856Z,20.42
2023-05-24T10:17:42.895Z,20.20
2023-05-24T10:18:42.859Z,19.99
2023-05-24T10:19:42.841Z,19.62
2023-05-24T10:20:43.302Z,19.31
2023-05-24T10:21:42.905Z,18.77
2023-05-24T10:22:42.851Z,18.16
2023-05-24T10:23:42.778Z,17.82
2023-05-24T10:24:42.767Z,17.42
2023-05-24T10:25:42.771Z,16.92
2023-05-24T10:26:42.756Z,16.66
2023-05-24T10:27:42.713Z,16.04
2023-05-24T10:28:42.728Z,15.85
2023-05-24T10:29:42.711Z,15.86
2023-05-24T10:30:43.126Z,15.83
2023-05-24T10:31:42.788Z,15.19
2023-05-24T10:32:42.653Z,14.66
2023-05-24T10:33:42.588Z,14.41
2023-05-24T10:34:42.576Z,13.97
2023-05-24T10:35:42.574Z,13.99
2023-05-24T10:36:42.540Z,13.98
2023-05-24T10:37:42.516Z,13.91
2023-05-24T10:38:42.874Z,13.40
2023-05-24T10:39:42.457Z,14.04
2023-05-24T10:40:42.460Z,14.77
2023-05-24T10:41:42.496Z,14.91
2023-05-24T10:42:42.410Z,14.57
2023-05-24T10:43:42.482Z,14.19
2023-05-24T10:44:42.389Z,13.96
2023-05-24T10:45:42.383Z,13.50
2023-05-24T10:46:42.508Z,13.00
2023-05-24T10:47:42.344Z,12.51
2023-05-24T10:48:42.290Z,11.95
2023-05-24T10:49:42.294Z,11.95
2023-05-24T10:50:42.679Z,11.44
2023-05-24T10:51:42.347Z,11.45
2023-05-24T10:52:42.251Z,10.80
2023-05-24T10:53:42.195Z,10.71
2023-05-24T10:54:52.483Z,9.88
2023-05-24T10:55:43.168Z,10.05
2023-05-24T10:56:42.156Z,9.83
2023-05-24T10:57:42.131Z,9.47
2023-05-24T10:58:42.111Z,9.11
2023-05-24T10:59:42.079Z,8.76
2023-05-24T11:00:42.073Z,8.45
2023-05-24T11:01:42.087Z,8.17
2023-05-24T11:02:42.097Z,8.08
2023-05-24T11:03:42.018Z,7.85
2023-05-24T11:04:41.991Z,7.50
2023-05-24T11:05:43.275Z,7.29
2023-05-24T11:06:41.949Z,7.13
2023-05-24T11:07:41.927Z,7.13
2023-05-24T11:08:41.900Z,7.08
2023-05-24T11:09:41.914Z,6.87
2023-05-24T11:10:43.124Z,6.88
2023-05-24T11:11:41.837Z,6.88
2023-05-24T11:12:41.823Z,6.48
2023-05-24T11:13:41.802Z,6.46
2023-05-24T11:14:41.801Z,6.47
2023-05-24T11:15:41.830Z,6.31
2023-05-24T11:16:41.907Z,6.08
2023-05-24T11:17:43.577Z,6.09
2023-05-24T11:18:41.746Z,6.02
2023-05-24T11:19:41.715Z,6.05
2023-05-24T11:20:42.189Z,5.84
2023-05-24T11:21:41.709Z,5.67
2023-05-24T11:22:41.671Z,5.52
2023-05-24T11:23:41.655Z,5.48
2023-05-24T11:24:41.655Z,5.37
2023-05-24T11:25:41.651Z,5.33
2023-05-24T11:26:41.652Z,5.15
2023-05-24T11:27:41.626Z,5.56
2023-05-24T11:28:41.678Z,5.81
2023-05-24T11:29:41.684Z,6.03
2023-05-24T11:30:41.811Z,6.21
2023-05-24T11:31:44.055Z,6.22
2023-05-24T11:32:41.640Z,6.26
2023-05-24T11:33:41.562Z,6.29
2023-05-24T11:34:41.520Z,6.33
2023-05-24T11:35:41.528Z,6.31
2023-05-24T11:36:41.507Z,6.37
2023-05-24T11:37:46.370Z,6.26
2023-05-24T11:38:42.491Z,6.27
2023-05-24T11:39:41.466Z,6.28
2023-05-24T11:40:41.609Z,6.07
2023-05-24T11:41:41.482Z,6.08
2023-05-24T11:42:41.458Z,6.06
2023-05-24T11:43:41.421Z,6.02
2023-05-24T11:44:41.409Z,5.95
2023-05-24T11:45:41.385Z,5.92
2023-05-24T11:46:41.408Z,5.83
2023-05-24T11:47:41.370Z,5.88
2023-05-24T11:48:42.333Z,5.83
2023-05-24T11:49:41.348Z,5.71
2023-05-24T11:50:49.307Z,5.74
2023-05-24T11:51:42.443Z,5.74
2023-05-24T11:52:41.245Z,5.71
2023-05-24T11:53:41.248Z,5.73
2023-05-24T11:54:41.214Z,5.64
2023-05-24T11:55:41.356Z,5.57
2023-05-24T11:56:41.232Z,5.49
2023-05-24T11:57:41.184Z,5.44
2023-05-24T11:58:41.137Z,5.43
2023-05-24T11:59:41.129Z,5.31
2023-05-24T12:00:41.239Z,5.24
2023-05-24T12:01:41.061Z,5.25
2023-05-24T12:02:41.146Z,5.13
2023-05-24T12:03:41.166Z,5.16
2023-05-24T12:04:41.050Z,5.02
2023-05-24T12:05:40.995Z,4.93
2023-05-24T12:06:40.996Z,4.91
2023-05-24T12:07:41.002Z,4.96
2023-05-24T12:08:41.044Z,4.79
2023-05-24T12:09:40.998Z,4.80
2023-05-24T12:10:41.201Z,4.81
2023-05-24T12:11:40.964Z,4.70
2023-05-24T12:12:45.710Z,4.76
2023-05-24T12:13:41.957Z,4.80
2023-05-24T12:14:41.063Z,4.80
2023-05-24T12:15:41.010Z,4.80
2023-05-24T12:16:40.940Z,4.80
2023-05-24T12:17:40.905Z,4.67
2023-05-24T12:18:48.369Z,4.59
2023-05-24T12:19:41.841Z,4.80
2023-05-24T12:20:40.941Z,4.75
2023-05-24T12:21:40.845Z,4.60
2023-05-24T12:22:40.813Z,4.62
2023-05-24T12:23:40.785Z,4.51
2023-05-24T12:24:40.855Z,4.44
2023-05-24T12:25:40.751Z,4.36
2023-05-24T12:26:40.721Z,4.37
2023-05-24T12:27:41.152Z,4.31
2023-05-24T12:28:40.696Z,4.25
2023-05-24T12:29:41.276Z,4.19
2023-05-24T12:30:40.852Z,4.21
2023-05-24T12:31:40.644Z,4.13
2023-05-24T12:32:40.659Z,4.11
2023-05-24T12:33:40.594Z,4.08
2023-05-24T12:34:40.638Z,3.97
2023-05-24T12:35:40.650Z,3.98
2023-05-24T12:36:40.668Z,3.86
2023-05-24T12:37:40.669Z,3.88
2023-05-24T12:38:40.700Z,3.96
2023-05-24T12:39:40.667Z,3.96
2023-05-24T12:43:18.552Z,0.50
2023-05-24T12:44:18.556Z,0.50
2023-05-24T12:45:18.470Z,0.50
2023-05-24T12:46:18.502Z,0.50
2023-05-24T12:47:18.473Z,0.50
2023-05-24T12:48:18.492Z,0.50
2023-05-24T12:49:18.425Z,0.50
2023-05-24T12:50:18.410Z,0.50
2023-05-24T12:51:18.394Z,0.50
2023-05-24T12:52:18.382Z,0.50
2023-05-24T12:53:18.384Z,0.51
2023-05-24T12:54:18.387Z,0.50
2023-05-24T12:55:18.392Z,0.50
2023-05-24T12:56:18.357Z,0.50
2023-05-24T12:57:18.338Z,0.51
2023-05-24T12:58:18.369Z,0.51
2023-05-24T12:59:18.307Z,0.50
2023-05-24T13:00:18.325Z,0.50
2023-05-24T13:01:18.361Z,0.50
2023-05-24T13:02:18.277Z,0.51
2023-05-24T13:03:18.302Z,0.50
2023-05-24T13:04:18.265Z,0.51
2023-05-24T13:05:18.274Z,0.50
2023-05-24T13:06:18.250Z,0.51
2023-05-24T13:07:18.268Z,0.51
2023-05-24T13:08:18.208Z,0.51
2023-05-24T13:09:18.203Z,0.51
2023-05-24T13:10:18.196Z,0.50
2023-05-24T13:11:18.174Z,0.51
2023-05-24T13:12:18.197Z,0.50
2023-05-24T13:13:18.140Z,0.51
2023-05-24T13:14:18.164Z,0.50
2023-05-24T13:15:18.113Z,0.50
2023-05-24T13:16:18.166Z,0.51
2023-05-24T13:17:18.172Z,0.51